Time;durP1;ratioP1;P1;durP2;ratioP2;P2;SDS_P1;SDS_P2;PMS_P1;PMS_P2;Temp;Humidity;BMP_temperature;BMP_pressure;BME280_temperature;BME280_humidity;BME280_pressure;Samples;Min_cycle;Max_cycle;Signal;HPM_P1;HPM_P2
2023/09/10 00:00:27;;;;;;;11.80;10.57;;;17.50;99.90;;;;;;2068764;28;20237;-83
2023/09/10 00:01:28;;;;;;;11.37;9.70;;;17.50;99.90;;;;;;2073041;28;20249;-83
2023/09/10 00:02:28;;;;;;;11.30;10.17;;;17.50;99.90;;;;;;2071308;28;20673;-82
2023/09/10 00:03:29;;;;;;;13.33;10.93;;;17.40;99.90;;;;;;2065996;28;20244;-83
2023/09/10 00:04:32;;;;;;;11.27;10.10;;;17.40;99.90;;;;;;2073807;28;20245;-82
2023/09/10 00:05:33;;;;;;;11.60;10.50;;;17.40;99.90;;;;;;2058102;28;20239;-83
2023/09/10 00:06:34;;;;;;;12.73;11.43;;;17.30;99.90;;;;;;2053559;28;20568;-83
2023/09/10 00:07:34;;;;;;;12.63;10.93;;;17.30;99.90;;;;;;2065094;28;20273;-83
2023/09/10 00:08:35;;;;;;;12.20;10.73;;;17.30;99.90;;;;;;2073866;28;20229;-83
2023/09/10 00:09:36;;;;;;;12.43;11.37;;;17.40;99.90;;;;;;2067608;28;20358;-82
2023/09/10 00:10:38;;;;;;;13.57;11.80;;;17.30;99.90;;;;;;2067369;28;20480;-83
2023/09/10 00:11:39;;;;;;;13.43;11.70;;;17.40;99.90;;;;;;2070034;28;20229;-83
2023/09/10 00:12:41;;;;;;;12.77;11.50;;;17.40;99.90;;;;;;2068799;28;20471;-83
2023/09/10 00:13:41;;;;;;;13.83;12.30;;;17.30;99.90;;;;;;2057092;28;20242;-83
2023/09/10 00:14:42;;;;;;;12.63;11.43;;;17.30;99.90;;;;;;2058554;28;20547;-82
2023/09/10 00:15:43;;;;;;;12.70;11.47;;;17.30;99.90;;;;;;2059067;28;20301;-83
2023/09/10 00:16:44;;;;;;;13.00;11.70;;;17.40;99.90;;;;;;2058959;28;20236;-82
2023/09/10 00:17:45;;;;;;;13.10;11.80;;;17.30;99.90;;;;;;2058823;28;20481;-83
2023/09/10 00:18:45;;;;;;;12.97;11.77;;;17.30;99.90;;;;;;2066959;28;20234;-83
2023/09/10 00:19:46;;;;;;;13.93;12.07;;;17.40;99.90;;;;;;2074864;28;20232;-82
2023/09/10 00:20:49;;;;;;;13.50;11.80;;;17.40;99.90;;;;;;2067390;28;20234;-83
2023/09/10 00:21:50;;;;;;;12.60;11.30;;;17.40;99.90;;;;;;2065517;28;20233;-82
2023/09/10 00:22:51;;;;;;;13.80;12.17;;;17.30;99.90;;;;;;2082593;28;20504;-82
2023/09/10 00:23:51;;;;;;;12.27;11.07;;;17.30;99.90;;;;;;2074150;28;20233;-83
2023/09/10 00:24:52;;;;;;;13.90;12.27;;;17.30;99.90;;;;;;2075593;28;20700;-82
2023/09/10 00:25:54;;;;;;;14.27;12.73;;;17.30;99.90;;;;;;2066338;28;20233;-81
2023/09/10 00:26:55;;;;;;;13.73;12.07;;;17.40;99.90;;;;;;2059172;28;20257;-83
2023/09/10 00:27:57;;;;;;;14.00;12.57;;;17.30;99.90;;;;;;2062190;28;20535;-83
2023/09/10 00:28:58;;;;;;;13.57;12.23;;;17.30;99.90;;;;;;2057172;28;20226;-84
2023/09/10 00:29:59;;;;;;;14.07;11.60;;;17.30;99.90;;;;;;2065476;28;20508;-82
2023/09/10 00:30:59;;;;;;;13.20;11.80;;;17.30;99.90;;;;;;2082042;28;20288;-83
2023/09/10 00:32:00;;;;;;;13.87;11.20;;;17.30;99.90;;;;;;2067008;28;20312;-82
2023/09/10 00:33:01;;;;;;;12.57;11.03;;;17.30;99.90;;;;;;2066122;28;20232;-82
2023/09/10 00:34:02;;;;;;;13.23;12.00;;;17.30;99.90;;;;;;2059335;28;20264;-83
2023/09/10 00:35:03;;;;;;;13.37;11.97;;;17.30;99.90;;;;;;2061898;28;20214;-83
2023/09/10 00:36:04;;;;;;;12.07;10.77;;;17.30;99.90;;;;;;2057176;28;20433;-82
2023/09/10 00:37:05;;;;;;;13.07;11.63;;;17.20;99.90;;;;;;2057563;28;20436;-83
2023/09/10 00:38:05;;;;;;;12.63;11.33;;;17.20;99.90;;;;;;2066617;28;20253;-83
2023/09/10 00:39:07;;;;;;;11.27;10.07;;;17.20;99.90;;;;;;2066634;28;20190;-82
2023/09/10 00:40:08;;;;;;;13.43;11.37;;;17.20;99.90;;;;;;2065964;28;20190;-81
2023/09/10 00:41:09;;;;;;;11.73;10.60;;;17.20;99.90;;;;;;2058903;28;20446;-82
2023/09/10 00:42:10;;;;;;;12.57;11.27;;;17.20;99.90;;;;;;2059449;28;20505;-82
2023/09/10 00:43:11;;;;;;;12.70;11.47;;;17.20;99.90;;;;;;2058462;28;20939;-82
2023/09/10 00:44:12;;;;;;;13.07;11.77;;;17.20;99.90;;;;;;2065533;28;20321;-83
2023/09/10 00:45:13;;;;;;;15.10;11.80;;;17.20;99.90;;;;;;2067070;28;20846;-82
2023/09/10 00:46:13;;;;;;;12.43;11.33;;;17.20;99.90;;;;;;2059339;28;20772;-83
2023/09/10 00:47:14;;;;;;;13.20;12.00;;;17.20;99.90;;;;;;2067461;28;20210;-83
2023/09/10 00:48:15;;;;;;;14.17;12.87;;;17.10;99.90;;;;;;2074289;28;20249;-83
2023/09/10 00:49:16;;;;;;;13.30;11.80;;;17.10;99.90;;;;;;2066902;28;20428;-83
2023/09/10 00:50:17;;;;;;;12.67;11.47;;;17.10;99.90;;;;;;2061799;28;20179;-82
2023/09/10 00:51:19;;;;;;;13.43;12.07;;;17.10;99.90;;;;;;2057296;28;20429;-81
2023/09/10 00:52:23;;;;;;;12.80;11.47;;;17.10;99.90;;;;;;2064572;28;20492;-82
2023/09/10 00:53:25;;;;;;;12.63;10.90;;;17.10;99.90;;;;;;2069278;28;20474;-83
2023/09/10 00:54:30;;;;;;;13.10;11.77;;;17.10;99.90;;;;;;2061490;28;20472;-82
2023/09/10 00:55:34;;;;;;;13.00;11.70;;;17.10;99.90;;;;;;2068612;28;20478;-83
2023/09/10 00:56:35;;;;;;;13.23;12.03;;;17.10;99.90;;;;;;2060510;28;20468;-83
2023/09/10 00:57:37;;;;;;;12.77;11.47;;;17.10;99.90;;;;;;2052256;28;20469;-83
2023/09/10 00:58:38;;;;;;;15.37;12.50;;;17.00;99.90;;;;;;2059699;28;20484;-83
2023/09/10 00:59:40;;;;;;;12.77;11.67;;;17.00;99.90;;;;;;2058401;28;20481;-83
2023/09/10 01:00:43;;;;;;;12.57;11.47;;;17.00;99.90;;;;;;2059724;28;20544;-82
2023/09/10 01:01:44;;;;;;;13.30;11.77;;;17.00;99.90;;;;;;2067278;28;20574;-83
2023/09/10 01:02:44;;;;;;;12.77;11.40;;;17.00;99.90;;;;;;2066392;28;20547;-83
2023/09/10 01:03:45;;;;;;;13.47;11.77;;;16.90;99.90;;;;;;2058968;28;20608;-82
2023/09/10 01:04:46;;;;;;;12.73;11.47;;;16.90;99.90;;;;;;2066822;28;20357;-82
2023/09/10 01:05:47;;;;;;;14.63;11.47;;;16.90;99.90;;;;;;2058900;28;20329;-82
2023/09/10 01:06:50;;;;;;;12.57;11.23;;;16.90;99.90;;;;;;2058708;28;20226;-82
2023/09/10 01:07:51;;;;;;;14.80;12.43;;;16.90;99.90;;;;;;2064630;28;20543;-82
2023/09/10 01:08:52;;;;;;;11.80;10.70;;;16.90;99.90;;;;;;2077871;28;20591;-82
2023/09/10 01:09:53;;;;;;;12.73;11.53;;;16.90;99.90;;;;;;2075124;28;20644;-82
2023/09/10 01:11:50;;;;;;;13.27;12.10;;;16.80;99.90;;;;;;2073811;28;20611;-82
2023/09/10 01:13:01;;;;;;;11.23;10.20;;;16.80;99.90;;;;;;2069152;28;20237;-82
2023/09/10 01:14:36;;;;;;;12.47;11.17;;;16.80;99.90;;;;;;2067621;28;20460;-82
2023/09/10 01:15:55;;;;;;;14.03;12.53;;;16.80;99.90;;;;;;2036552;29;20579;-82
2023/09/10 01:17:02;;;;;;;17.20;12.23;;;16.80;99.90;;;;;;2068928;28;20475;-82
2023/09/10 01:18:25;;;;;;;12.30;11.10;;;16.80;99.90;;;;;;2056689;28;20528;-82
2023/09/10 01:19:47;;;;;;;12.77;11.47;;;16.70;99.90;;;;;;2071105;28;20581;-83
2023/09/10 01:21:17;;;;;;;13.57;12.17;;;16.70;99.90;;;;;;2074564;28;20474;-82
2023/09/10 01:23:07;;;;;;;12.57;11.30;;;16.70;99.90;;;;;;2061733;28;20491;-81
2023/09/10 01:24:22;;;;;;;12.63;11.43;;;16.70;99.90;;;;;;2068041;28;20459;-82
2023/09/10 01:25:24;;;;;;;14.90;11.23;;;16.60;99.90;;;;;;2064920;28;20802;-81
2023/09/10 01:26:24;;;;;;;13.07;11.77;;;16.60;99.90;;;;;;2062800;28;20563;-80
2023/09/10 01:27:25;;;;;;;13.23;11.83;;;16.60;99.90;;;;;;2051479;28;20470;-81
2023/09/10 01:28:26;;;;;;;12.87;11.67;;;16.60;99.90;;;;;;2056358;28;20231;-82
2023/09/10 01:29:27;;;;;;;13.90;12.57;;;16.60;99.90;;;;;;2053451;28;20223;-81
2023/09/10 01:30:27;;;;;;;13.67;12.33;;;16.60;99.90;;;;;;2047794;28;20256;-81
2023/09/10 01:31:34;;;;;;;13.00;11.60;;;16.60;99.90;;;;;;2062063;28;20226;-81
2023/09/10 01:33:01;;;;;;;15.47;12.93;;;16.60;99.90;;;;;;2063728;28;20995;-82
2023/09/10 01:34:04;;;;;;;13.67;11.40;;;16.60;99.90;;;;;;2066476;28;20462;-82
2023/09/10 01:35:44;;;;;;;13.53;11.03;;;16.60;99.90;;;;;;2070220;28;20816;-82
2023/09/10 01:36:54;;;;;;;12.87;10.80;;;16.60;99.90;;;;;;2077938;28;20539;-82
2023/09/10 01:38:02;;;;;;;13.07;11.33;;;16.50;99.90;;;;;;2066105;28;21354;-83
2023/09/10 01:39:24;;;;;;;12.50;11.30;;;16.50;99.90;;;;;;2052674;28;20493;-81
2023/09/10 01:40:33;;;;;;;12.07;10.80;;;16.40;99.90;;;;;;2064925;28;20524;-82
2023/09/10 01:41:38;;;;;;;12.10;10.90;;;16.40;99.90;;;;;;2073576;28;20542;-82
2023/09/10 01:42:40;;;;;;;11.73;10.50;;;16.40;99.90;;;;;;2066281;28;20468;-83
2023/09/10 01:43:42;;;;;;;14.23;12.03;;;16.40;99.90;;;;;;2056993;28;20576;-82
2023/09/10 01:44:45;;;;;;;14.00;12.43;;;16.40;99.90;;;;;;2050377;28;20486;-83
2023/09/10 01:45:48;;;;;;;14.83;12.73;;;16.50;99.90;;;;;;2051408;28;20493;-82
2023/09/10 01:46:50;;;;;;;13.60;12.20;;;16.40;99.90;;;;;;2059004;28;20472;-81
2023/09/10 01:47:51;;;;;;;12.43;11.10;;;16.50;99.90;;;;;;2066007;28;20474;-83
2023/09/10 01:48:52;;;;;;;12.00;10.80;;;16.50;99.90;;;;;;2058147;28;20475;-82
2023/09/10 01:49:53;;;;;;;13.20;11.50;;;16.40;99.90;;;;;;2056314;28;20295;-82
2023/09/10 01:50:54;;;;;;;12.00;10.93;;;16.30;99.90;;;;;;2057933;28;20235;-82
2023/09/10 01:51:55;;;;;;;13.40;11.47;;;16.30;99.90;;;;;;2057622;28;20238;-82
2023/09/10 01:52:59;;;;;;;13.33;11.87;;;16.30;99.90;;;;;;2059094;28;20469;-82
2023/09/10 01:53:59;;;;;;;12.50;11.27;;;16.30;99.90;;;;;;2058250;28;20225;-81
2023/09/10 01:55:00;;;;;;;14.73;11.80;;;16.40;99.90;;;;;;2051121;28;20504;-82
2023/09/10 01:56:01;;;;;;;13.37;11.90;;;16.30;99.90;;;;;;2050442;28;20731;-82
2023/09/10 01:57:02;;;;;;;14.27;12.87;;;16.30;99.90;;;;;;2050385;28;20235;-82
2023/09/10 01:58:03;;;;;;;14.83;13.30;;;16.30;99.90;;;;;;2057938;28;20969;-82
2023/09/10 01:59:04;;;;;;;13.93;11.80;;;16.30;99.90;;;;;;2065962;28;20222;-82
2023/09/10 02:00:08;;;;;;;12.83;11.43;;;16.30;99.90;;;;;;2066608;28;20431;-81
2023/09/10 02:01:08;;;;;;;12.67;11.47;;;16.30;99.90;;;;;;2065680;28;20659;-82
2023/09/10 02:02:09;;;;;;;13.23;11.83;;;16.30;99.90;;;;;;2059818;28;20433;-81
2023/09/10 02:03:10;;;;;;;14.10;11.83;;;16.30;99.90;;;;;;2053228;28;20203;-81
2023/09/10 02:04:10;;;;;;;13.80;12.50;;;16.30;99.90;;;;;;2052568;28;20196;-82
2023/09/10 02:05:11;;;;;;;15.37;12.23;;;16.20;99.90;;;;;;2064256;28;20206;-82
2023/09/10 02:06:12;;;;;;;14.33;12.67;;;16.20;99.90;;;;;;2061330;28;20207;-81
2023/09/10 02:07:12;;;;;;;14.40;13.10;;;16.30;99.90;;;;;;2052421;28;20743;-82
2023/09/10 02:08:14;;;;;;;13.50;12.10;;;16.20;99.90;;;;;;2060103;28;20187;-80
2023/09/10 02:09:15;;;;;;;14.97;13.37;;;16.30;99.90;;;;;;2065934;28;20259;-82
2023/09/10 02:10:16;;;;;;;14.33;12.93;;;16.30;99.90;;;;;;2062285;28;20870;-81
2023/09/10 02:11:18;;;;;;;12.90;11.70;;;16.20;99.90;;;;;;2060163;28;20183;-82
2023/09/10 02:12:19;;;;;;;13.60;12.20;;;16.30;99.90;;;;;;2059984;28;20851;-83
2023/09/10 02:13:20;;;;;;;13.57;12.17;;;16.30;99.90;;;;;;2051839;28;20462;-82
2023/09/10 02:14:21;;;;;;;14.07;10.87;;;16.20;99.90;;;;;;2051375;28;20192;-82
2023/09/10 02:15:21;;;;;;;12.60;11.40;;;16.30;99.90;;;;;;2067163;28;20267;-83
2023/09/10 02:16:22;;;;;;;13.40;12.00;;;16.10;99.90;;;;;;2048491;28;20204;-82
2023/09/10 02:17:23;;;;;;;13.27;11.87;;;16.10;99.90;;;;;;2060195;28;20239;-83
2023/09/10 02:18:25;;;;;;;14.33;12.80;;;16.10;99.90;;;;;;2065475;28;20585;-83
2023/09/10 02:19:26;;;;;;;12.33;11.13;;;16.10;99.90;;;;;;2058874;28;20293;-83
2023/09/10 02:20:26;;;;;;;14.53;13.13;;;16.20;99.90;;;;;;2049448;28;20507;-82
2023/09/10 02:21:27;;;;;;;16.27;13.30;;;16.10;99.90;;;;;;2058813;28;20234;-83
2023/09/10 02:22:28;;;;;;;12.80;11.37;;;16.10;99.90;;;;;;2066066;28;20659;-82
2023/09/10 02:23:29;;;;;;;14.97;13.23;;;16.20;99.90;;;;;;2056530;28;20234;-82
2023/09/10 02:24:29;;;;;;;13.47;12.07;;;16.10;99.90;;;;;;2056269;28;20301;-82
2023/09/10 02:25:32;;;;;;;14.33;12.90;;;16.10;99.90;;;;;;2053551;28;20242;-83
2023/09/10 02:26:33;;;;;;;13.00;11.23;;;16.10;99.90;;;;;;2061509;28;20699;-82
2023/09/10 02:27:35;;;;;;;15.13;13.63;;;16.20;99.90;;;;;;2047050;28;20466;-82
2023/09/10 02:28:36;;;;;;;14.80;13.13;;;16.20;99.90;;;;;;2060365;28;20234;-83
2023/09/10 02:29:36;;;;;;;15.97;11.70;;;16.20;99.90;;;;;;2057834;28;20477;-81
2023/09/10 02:30:37;;;;;;;15.60;14.00;;;16.20;99.90;;;;;;2056315;28;20652;-82
2023/09/10 02:31:38;;;;;;;15.80;14.13;;;16.20;99.90;;;;;;2073251;28;20260;-82
2023/09/10 02:32:39;;;;;;;13.87;12.37;;;16.20;99.90;;;;;;2058072;28;20262;-82
2023/09/10 02:33:40;;;;;;;15.63;13.93;;;16.20;99.90;;;;;;2059738;28;20254;-82
2023/09/10 02:34:40;;;;;;;15.40;13.80;;;16.20;99.90;;;;;;2067173;28;20472;-83
2023/09/10 02:35:42;;;;;;;15.60;14.10;;;16.30;99.90;;;;;;2050887;28;20306;-82
2023/09/10 02:36:42;;;;;;;14.30;12.93;;;16.20;99.90;;;;;;2051034;28;20233;-82
2023/09/10 02:37:43;;;;;;;14.57;13.07;;;16.20;99.90;;;;;;2058498;28;20552;-82
2023/09/10 02:38:44;;;;;;;15.77;13.40;;;16.20;99.90;;;;;;2059672;28;20239;-82
2023/09/10 02:39:44;;;;;;;12.50;11.20;;;16.20;99.90;;;;;;2047934;28;20731;-82
2023/09/10 02:40:45;;;;;;;13.47;11.43;;;16.30;99.90;;;;;;2060240;28;20233;-82
2023/09/10 02:41:46;;;;;;;15.53;13.93;;;16.30;99.90;;;;;;2062900;28;20372;-83
2023/09/10 02:42:47;;;;;;;15.50;14.10;;;16.20;99.90;;;;;;2063865;28;20234;-82
2023/09/10 02:43:48;;;;;;;14.40;12.67;;;16.30;99.90;;;;;;2066621;28;20472;-82
2023/09/10 02:44:48;;;;;;;13.17;11.77;;;16.20;99.90;;;;;;2059399;28;20282;-82
2023/09/10 02:45:50;;;;;;;12.33;11.13;;;16.20;99.90;;;;;;2051398;28;20236;-82
2023/09/10 02:46:52;;;;;;;14.93;13.33;;;16.20;99.90;;;;;;2050954;28;20291;-82
2023/09/10 02:47:52;;;;;;;15.13;12.70;;;16.20;99.90;;;;;;2054245;28;20516;-81
2023/09/10 02:48:53;;;;;;;12.53;11.27;;;16.20;99.90;;;;;;2072215;28;20464;-81
2023/09/10 02:49:55;;;;;;;13.67;12.27;;;16.10;99.90;;;;;;2080614;28;20292;-81
2023/09/10 02:50:55;;;;;;;11.97;10.87;;;16.10;99.90;;;;;;2070286;28;20244;-82
2023/09/10 02:51:56;;;;;;;11.33;10.23;;;16.10;99.90;;;;;;2067826;28;20483;-83
2023/09/10 02:52:57;;;;;;;13.23;11.30;;;16.10;99.90;;;;;;2060929;28;20282;-81
2023/09/10 02:53:57;;;;;;;13.27;11.87;;;16.10;99.90;;;;;;2071428;28;20226;-82
2023/09/10 02:54:59;;;;;;;13.10;11.80;;;16.10;99.90;;;;;;2081387;28;20252;-81
2023/09/10 02:56:02;;;;;;;12.13;10.83;;;16.10;99.90;;;;;;2072525;28;20228;-82
2023/09/10 02:57:03;;;;;;;14.70;12.15;;;16.00;99.90;;;;;;2068641;28;20983;-83
2023/09/10 02:58:03;;;;;;;12.70;11.40;;;16.00;99.90;;;;;;2061161;28;20191;-82
2023/09/10 02:59:04;;;;;;;12.67;11.37;;;16.00;99.90;;;;;;2074967;28;20177;-82
2023/09/10 03:00:06;;;;;;;13.27;11.73;;;15.90;99.90;;;;;;2074075;28;20201;-81
2023/09/10 03:01:07;;;;;;;12.25;10.85;;;15.90;99.90;;;;;;2068048;28;20246;-83
2023/09/10 03:02:08;;;;;;;13.37;11.20;;;15.90;99.90;;;;;;2067364;28;20202;-82
2023/09/10 03:03:08;;;;;;;12.60;11.40;;;15.90;99.90;;;;;;2050970;28;20196;-82
2023/09/10 03:04:09;;;;;;;12.90;11.47;;;15.90;99.90;;;;;;2059978;28;20260;-82
2023/09/10 03:05:10;;;;;;;13.07;11.77;;;15.90;99.90;;;;;;2067701;28;20289;-81
2023/09/10 03:06:12;;;;;;;14.60;13.03;;;15.90;99.90;;;;;;2067264;28;20704;-81
2023/09/10 03:07:13;;;;;;;14.73;12.90;;;15.80;99.90;;;;;;2072319;28;20697;-80
2023/09/10 03:08:14;;;;;;;13.73;12.33;;;15.90;99.90;;;;;;2063975;28;20421;-81
2023/09/10 03:09:15;;;;;;;14.13;12.80;;;15.80;99.90;;;;;;2065494;28;20210;-81
2023/09/10 03:10:16;;;;;;;13.73;12.23;;;15.80;99.90;;;;;;2068228;28;20671;-82
2023/09/10 03:11:17;;;;;;;13.63;12.30;;;15.90;99.90;;;;;;2076698;28;20532;-81
2023/09/10 03:12:22;;;;;;;13.07;11.77;;;15.90;99.90;;;;;;2069011;28;20202;-81
2023/09/10 03:13:23;;;;;;;13.03;11.73;;;15.80;99.90;;;;;;2072366;28;20411;-81
2023/09/10 03:14:25;;;;;;;13.07;11.63;;;15.80;99.90;;;;;;2075190;28;20513;-81
2023/09/10 03:15:26;;;;;;;13.97;12.57;;;15.80;99.90;;;;;;2066407;28;20234;-81
2023/09/10 03:16:27;;;;;;;16.03;13.27;;;15.80;99.90;;;;;;2059581;28;20488;-82
2023/09/10 03:17:27;;;;;;;14.20;12.87;;;15.80;99.90;;;;;;2064527;28;20226;-81
2023/09/10 03:18:28;;;;;;;14.53;12.90;;;15.80;99.90;;;;;;2060507;28;20290;-82
2023/09/10 03:19:29;;;;;;;13.30;11.97;;;15.70;99.90;;;;;;2067875;28;20228;-81
2023/09/10 03:20:29;;;;;;;15.13;12.90;;;15.70;99.90;;;;;;2070414;28;20708;-81
2023/09/10 03:21:30;;;;;;;17.70;13.40;;;15.80;99.90;;;;;;2074412;28;20244;-81
2023/09/10 03:22:31;;;;;;;14.70;13.30;;;15.80;99.90;;;;;;2072923;28;20229;-81
2023/09/10 03:23:32;;;;;;;14.43;13.03;;;15.80;99.90;;;;;;2065075;28;20242;-82
2023/09/10 03:24:36;;;;;;;16.20;14.60;;;15.80;99.90;;;;;;2074651;28;20237;-82
2023/09/10 03:25:39;;;;;;;14.27;12.87;;;15.70;99.90;;;;;;2083140;28;20267;-81
2023/09/10 03:26:40;;;;;;;15.27;13.70;;;15.70;99.90;;;;;;2067286;28;20467;-82
2023/09/10 03:27:40;;;;;;;15.83;14.23;;;15.80;99.90;;;;;;2058772;28;21023;-82
2023/09/10 03:28:41;;;;;;;15.83;13.90;;;15.70;99.90;;;;;;2067690;28;20226;-82
2023/09/10 03:29:45;;;;;;;14.77;13.17;;;15.70;99.90;;;;;;2065348;28;20229;-81
2023/09/10 03:30:45;;;;;;;13.95;12.60;;;15.70;99.90;;;;;;2067177;28;20232;-82
2023/09/10 03:31:46;;;;;;;17.47;14.63;;;15.70;99.90;;;;;;2066962;28;20257;-81
2023/09/10 03:32:51;;;;;;;14.70;13.23;;;15.80;99.90;;;;;;2066662;28;20230;-82
2023/09/10 03:33:51;;;;;;;16.35;14.75;;;15.70;99.90;;;;;;2066896;28;20222;-82
2023/09/10 03:34:52;;;;;;;15.93;13.37;;;15.70;99.90;;;;;;2065647;28;20244;-82
2023/09/10 03:35:53;;;;;;;15.17;13.60;;;15.80;99.90;;;;;;2073721;28;20226;-81
2023/09/10 03:36:53;;;;;;;14.87;13.47;;;15.70;99.90;;;;;;2075298;28;20238;-81
2023/09/10 03:37:54;;;;;;;15.47;13.60;;;15.70;99.90;;;;;;2058902;28;20237;-82
2023/09/10 03:38:55;;;;;;;16.10;14.40;;;15.70;99.90;;;;;;2059818;28;20242;-81
2023/09/10 03:39:55;;;;;;;15.63;14.00;;;15.70;99.90;;;;;;2066181;28;20234;-81
2023/09/10 03:40:56;;;;;;;16.83;13.23;;;15.70;99.90;;;;;;2075409;28;20235;-81
2023/09/10 03:41:57;;;;;;;14.37;12.27;;;15.70;99.90;;;;;;2074536;28;20253;-82
2023/09/10 03:42:57;;;;;;;15.23;13.80;;;15.70;99.90;;;;;;2074188;28;20608;-81
2023/09/10 03:43:59;;;;;;;15.30;13.80;;;15.70;99.90;;;;;;2075445;28;20241;-81
2023/09/10 03:45:00;;;;;;;14.73;13.32;;;15.70;99.90;;;;;;2066190;28;20234;-82
2023/09/10 03:46:01;;;;;;;15.27;13.77;;;15.70;99.90;;;;;;2073815;28;20649;-82
2023/09/10 03:47:02;;;;;;;14.27;12.83;;;15.70;99.90;;;;;;2081070;28;20749;-81
2023/09/10 03:48:03;;;;;;;18.73;14.10;;;15.70;99.90;;;;;;2074136;28;20487;-81
2023/09/10 03:49:03;;;;;;;16.15;13.68;;;15.70;99.90;;;;;;2070977;28;20281;-81
2023/09/10 03:50:05;;;;;;;17.30;15.30;;;15.70;99.90;;;;;;2057694;28;20689;-82
2023/09/10 03:51:06;;;;;;;15.07;13.38;;;15.70;99.90;;;;;;2067238;28;20182;-82
2023/09/10 03:52:19;;;;;;;15.13;13.03;;;15.70;99.90;;;;;;2067303;28;20178;-82
2023/09/10 03:53:20;;;;;;;19.92;15.27;;;15.70;99.90;;;;;;2068974;28;20174;-80
2023/09/10 03:54:20;;;;;;;16.67;14.97;;;15.70;99.90;;;;;;2066475;28;20202;-81
2023/09/10 03:55:21;;;;;;;13.87;12.37;;;15.60;99.90;;;;;;2059332;28;20183;-81
2023/09/10 03:56:23;;;;;;;15.13;13.63;;;15.70;99.90;;;;;;2062682;28;20616;-82
2023/09/10 03:57:24;;;;;;;14.77;13.10;;;15.60;99.90;;;;;;2059337;28;20227;-80
2023/09/10 03:58:24;;;;;;;15.00;13.50;;;15.60;99.90;;;;;;2058630;28;20468;-82
2023/09/10 03:59:25;;;;;;;15.77;14.13;;;15.60;99.90;;;;;;2058557;28;20285;-81
2023/09/10 04:00:26;;;;;;;17.37;15.13;;;15.60;99.90;;;;;;2074142;28;20318;-81
2023/09/10 04:01:27;;;;;;;16.87;15.07;;;15.60;99.90;;;;;;2064820;28;20298;-81
2023/09/10 04:02:29;;;;;;;17.30;15.27;;;15.60;99.90;;;;;;2046754;28;20227;-81
2023/09/10 04:03:30;;;;;;;15.98;14.32;;;15.60;99.90;;;;;;2062607;28;20229;-81
2023/09/10 04:04:31;;;;;;;16.60;14.90;;;15.60;99.90;;;;;;2055999;28;20655;-80
2023/09/10 04:05:31;;;;;;;15.00;13.57;;;15.60;99.90;;;;;;2055442;28;20929;-81
2023/09/10 04:06:32;;;;;;;16.97;15.13;;;15.60;99.90;;;;;;2059542;28;20298;-80
2023/09/10 04:07:33;;;;;;;16.33;13.87;;;15.60;99.90;;;;;;2056082;28;20246;-80
2023/09/10 04:08:34;;;;;;;18.20;15.17;;;15.60;99.90;;;;;;2055018;28;20234;-80
2023/09/10 04:09:34;;;;;;;14.53;13.03;;;15.60;99.90;;;;;;2055840;28;20222;-81
2023/09/10 04:10:35;;;;;;;15.50;13.87;;;15.60;99.90;;;;;;2058970;28;20250;-82
2023/09/10 04:11:36;;;;;;;14.40;12.93;;;15.60;99.90;;;;;;2063854;28;20230;-81
2023/09/10 04:12:37;;;;;;;19.73;16.07;;;15.70;99.90;;;;;;2060383;28;20222;-81
2023/09/10 04:13:38;;;;;;;16.23;13.63;;;15.60;99.90;;;;;;2070981;28;20232;-82
2023/09/10 04:14:39;;;;;;;15.90;14.40;;;15.60;99.90;;;;;;2073186;28;20328;-82
2023/09/10 04:15:39;;;;;;;18.17;15.27;;;15.60;99.90;;;;;;2066509;28;20210;-82
2023/09/10 04:16:40;;;;;;;16.13;12.53;;;15.60;99.90;;;;;;2062378;28;20268;-81
2023/09/10 04:17:41;;;;;;;15.63;13.93;;;15.60;99.90;;;;;;2057854;28;20229;-82
2023/09/10 04:18:41;;;;;;;13.87;12.20;;;15.60;99.90;;;;;;2053234;28;20353;-81
2023/09/10 04:19:42;;;;;;;14.80;13.20;;;15.60;99.90;;;;;;2061114;28;20262;-81
2023/09/10 04:20:43;;;;;;;14.38;12.98;;;15.70;99.90;;;;;;2060868;28;20239;-81
2023/09/10 04:21:44;;;;;;;15.67;13.37;;;15.60;99.90;;;;;;2063291;28;20226;-81
2023/09/10 04:22:45;;;;;;;16.07;14.27;;;15.60;99.90;;;;;;2070823;28;20732;-80
2023/09/10 04:23:45;;;;;;;16.17;14.13;;;15.60;99.90;;;;;;2078543;28;20237;-81
2023/09/10 04:24:46;;;;;;;15.97;13.07;;;15.60;99.90;;;;;;2079248;28;20238;-81
2023/09/10 04:25:50;;;;;;;13.83;12.27;;;15.60;99.90;;;;;;2071438;28;20286;-81
2023/09/10 04:26:51;;;;;;;13.98;12.63;;;15.60;99.90;;;;;;2070942;28;20322;-81
2023/09/10 04:27:52;;;;;;;14.30;12.70;;;15.60;99.90;;;;;;2067103;28;20376;-82
2023/09/10 04:28:52;;;;;;;15.23;13.77;;;15.50;99.90;;;;;;2060958;28;20298;-80
2023/09/10 04:29:54;;;;;;;15.43;13.10;;;15.60;99.90;;;;;;2063143;28;20246;-81
2023/09/10 04:30:55;;;;;;;14.03;12.53;;;15.60;99.90;;;;;;2071775;28;20237;-81
2023/09/10 04:31:56;;;;;;;15.97;12.97;;;15.50;99.90;;;;;;2069517;28;20486;-83
2023/09/10 04:32:57;;;;;;;14.05;12.65;;;15.50;99.90;;;;;;2066619;28;20226;-81
2023/09/10 04:33:58;;;;;;;14.73;13.23;;;15.50;99.90;;;;;;2065680;28;20237;-82
2023/09/10 04:34:58;;;;;;;14.30;12.80;;;15.40;99.90;;;;;;2059329;28;20234;-82
2023/09/10 04:36:01;;;;;;;14.60;12.67;;;15.50;99.90;;;;;;2058186;28;20231;-81
2023/09/10 04:37:04;;;;;;;15.07;13.57;;;15.40;99.90;;;;;;2050849;28;20274;-83
2023/09/10 04:38:05;;;;;;;16.48;14.70;;;15.40;99.90;;;;;;2050501;28;20556;-82
2023/09/10 04:39:08;;;;;;;15.60;14.00;;;15.40;99.90;;;;;;2060778;28;20187;-82
2023/09/10 04:40:10;;;;;;;15.73;14.05;;;15.40;99.90;;;;;;2056369;28;20190;-82
2023/09/10 04:41:10;;;;;;;14.82;13.27;;;15.40;99.90;;;;;;2071862;28;20189;-82
2023/09/10 04:42:11;;;;;;;16.07;14.37;;;15.40;99.90;;;;;;2064651;28;20218;-82
2023/09/10 04:43:12;;;;;;;14.67;13.23;;;15.40;99.90;;;;;;2066110;28;20538;-82
2023/09/10 04:44:13;;;;;;;15.37;12.43;;;15.40;99.90;;;;;;2057671;28;20207;-82
2023/09/10 04:45:13;;;;;;;17.00;13.37;;;15.40;99.90;;;;;;2061122;28;20215;-80
2023/09/10 04:46:14;;;;;;;15.20;12.60;;;15.30;99.90;;;;;;2070737;28;20199;-81
2023/09/10 04:47:15;;;;;;;15.87;12.87;;;15.30;99.90;;;;;;2062974;28;20190;-82
2023/09/10 04:48:17;;;;;;;14.23;12.45;;;15.30;99.90;;;;;;2059390;28;20183;-82
2023/09/10 04:49:18;;;;;;;16.60;14.07;;;15.40;99.90;;;;;;2064555;28;20298;-82
2023/09/10 04:50:19;;;;;;;16.20;13.87;;;15.40;99.90;;;;;;2067182;28;20289;-81
2023/09/10 04:51:19;;;;;;;17.00;14.53;;;15.40;99.90;;;;;;2073964;28;20245;-82
2023/09/10 04:52:20;;;;;;;16.33;14.73;;;15.40;99.90;;;;;;2075460;28;20177;-81
2023/09/10 04:53:21;;;;;;;18.43;15.53;;;15.40;99.90;;;;;;2066063;28;20617;-82
2023/09/10 04:54:21;;;;;;;18.00;15.40;;;15.30;99.90;;;;;;2063650;28;20218;-81
2023/09/10 04:55:22;;;;;;;16.83;14.23;;;15.40;99.90;;;;;;2080231;28;20287;-82
2023/09/10 04:56:23;;;;;;;16.60;14.80;;;15.30;99.90;;;;;;2081397;28;20331;-82
2023/09/10 04:57:25;;;;;;;16.00;13.27;;;15.30;99.90;;;;;;2059368;28;20265;-81
2023/09/10 04:58:26;;;;;;;15.95;14.30;;;15.40;99.90;;;;;;2059639;28;20230;-82
2023/09/10 04:59:27;;;;;;;15.40;13.80;;;15.40;99.90;;;;;;2058698;28;20249;-82
2023/09/10 05:00:27;;;;;;;13.93;12.53;;;15.30;99.90;;;;;;2058543;28;20238;-82
2023/09/10 05:01:28;;;;;;;15.57;13.97;;;15.30;99.90;;;;;;2058029;28;20290;-82
2023/09/10 05:02:29;;;;;;;18.47;14.07;;;15.40;99.90;;;;;;2057763;28;20226;-81
2023/09/10 05:03:29;;;;;;;15.37;13.63;;;15.40;99.90;;;;;;2066438;28;20226;-82
2023/09/10 05:04:30;;;;;;;15.37;13.77;;;15.40;99.90;;;;;;2066424;28;20278;-81
2023/09/10 05:05:31;;;;;;;16.50;14.17;;;15.40;99.90;;;;;;2060650;28;20652;-81
2023/09/10 05:06:31;;;;;;;17.87;14.50;;;15.40;99.90;;;;;;2050663;28;20227;-83
2023/09/10 05:07:32;;;;;;;15.33;13.90;;;15.40;99.90;;;;;;2057950;28;20227;-82
2023/09/10 05:08:33;;;;;;;18.63;15.63;;;15.40;99.90;;;;;;2065858;28;20869;-81
2023/09/10 05:09:34;;;;;;;16.20;13.83;;;15.40;99.90;;;;;;2062751;28;20254;-82
2023/09/10 05:10:35;;;;;;;15.37;13.87;;;15.30;99.90;;;;;;2064450;28;20478;-82
2023/09/10 05:11:35;;;;;;;15.57;13.30;;;15.40;99.90;;;;;;2072228;28;20793;-82
2023/09/10 05:12:36;;;;;;;14.60;13.10;;;15.50;99.90;;;;;;2072387;28;20321;-82
2023/09/10 05:13:38;;;;;;;15.37;13.83;;;15.40;99.90;;;;;;2073744;28;20244;-82
2023/09/10 05:14:39;;;;;;;15.90;14.20;;;15.50;99.90;;;;;;2057679;28;21098;-82
2023/09/10 05:15:39;;;;;;;15.13;13.63;;;15.40;99.90;;;;;;2057989;28;20472;-81
2023/09/10 05:16:40;;;;;;;16.40;14.70;;;15.50;99.90;;;;;;2057454;28;20611;-82